Alfonso, VA

4:20 PM EDT on September 17, 2014 (GMT -0400)
West Point | Change Station
CLOSE
Current Station
Airport
Location: West Point,
Elevation: 23 ft
Nearby Weather Stations

Elev 23 ft 37.52 °N, 76.76 °W | Updated 25 minutes ago

Partly Cloudy
Partly Cloudy
75 °F
Feels Like 75 °F
N
6
Wind Variable Wind from East

Today
High -- | Low -- °F
--% Chance of Precip.
Yesterday
High -- | Low -- °F
Precip. -- in
6:49 AM 7:10 PM
Waning Crescent, 33% visible
Pressure 29.97 in
Visibility 10.0 miles
Clouds Scattered Clouds 4200 ft
Scattered Clouds 4800 ft
Scattered Clouds 6000 ft
Dew Point 55 °F
Humidity 49%
Rainfall 0.00 in
Snow Depth Not available.
UV 3 out of 12
Pollen 6.50 out of 12
Air Quality Not available.
Flu Activity Not available.
METAR KFYJ 171955Z AUTO 10005KT 10SM SCT042 SCT048 SCT060 24/13 A2997 RMK AO2 T02410128

More Conditions Fewer Conditions

Pressure 29.97 in
Visibility 10.0 miles
Clouds Scattered Clouds 4200 ft
Scattered Clouds 4800 ft
Scattered Clouds 6000 ft
Dew Point 55 °F
Humidity 49%
Rainfall 0.00 in
Snow Depth Not available.
UV 3 out of 12
Pollen 6.50 out of 12
Air Quality Not available.
Flu Activity Not available.
METAR KFYJ 171955Z AUTO 10005KT 10SM SCT042 SCT048 SCT060 24/13 A2997 RMK AO2 T02410128

More Conditions Fewer Conditions

10-Day Weather Forecast

Almanac

Astronomy

Sep. 17, 2014 Rise Set
Actual Time 6:49 AM EDT 7:10 PM EDT
Civil Twilight 6:23 AM EDT 7:37 PM EDT
Nautical Twilight 5:52 AM EDT 8:07 PM EDT
Astronomical Twilight 5:20 AM EDT 8:39 PM EDT
Moon 12:52 AM EDT 3:14 PM EDT
Length of Visible Light 13h 13m
Length of Day
12h 21m
Tomorrow will be 2m 25s shorter.
Waning Crescent, 33% of the Moon is Illuminated
Today
Waning Crescent
Sep 24
New
Oct 1
First Quarter
Oct 8
Full
Oct 15
Last Quarter

Today's Extremes

State Highs State Lows

Community

WunderPhotos

Upload Photos

1,754,157 photos uploaded!

Nearby

Snow Depth

Station Depth Elevation
No new snow has been reported.

Earthquake Activity

City Distance Mag. Time & Date
No recent earthquake activity has been reported nearby.
Minimum magnitude displayed is 2.5.

Coastal Water Temperatures

Place Temperature
No Stations Reporting

Nearby Weather Stations